Time;durP1;ratioP1;P1;durP2;ratioP2;P2;SDS_P1;SDS_P2;PMS_P1;PMS_P2;Temp;Humidity;BMP_temperature;BMP_pressure;BME280_temperature;BME280_humidity;BME280_pressure;Samples;Min_cycle;Max_cycle;Signal;HPM_P1;HPM_P2
2021/05/02 00:01:38;;;;;;;;;;;6.10;99.90;;;;;;5092085;28;20349;-70
2021/05/02 00:04:04;;;;;;;;;;;6.10;99.90;;;;;;5091750;28;19938;-70
2021/05/02 00:06:30;;;;;;;;;;;6.00;99.90;;;;;;5090956;28;19912;-70
2021/05/02 00:08:56;;;;;;;;;;;6.00;99.90;;;;;;5091909;28;19916;-71
2021/05/02 00:11:21;;;;;;;;;;;5.90;99.90;;;;;;5092068;28;19908;-70
2021/05/02 00:13:47;;;;;;;;;;;5.90;99.90;;;;;;5091717;28;19919;-70
2021/05/02 00:16:12;;;;;;;;;;;5.90;99.90;;;;;;5090512;28;19962;-70
2021/05/02 00:18:38;;;;;;;;;;;5.80;99.90;;;;;;5091739;28;20377;-70
2021/05/02 00:21:10;;;;;;;;;;;5.80;99.90;;;;;;5091770;28;19969;-71
2021/05/02 00:23:36;;;;;;;;;;;5.80;99.90;;;;;;5089765;28;19959;-71
2021/05/02 00:26:03;;;;;;;;;;;5.80;99.90;;;;;;5090225;28;19919;-71
2021/05/02 00:28:30;;;;;;;;;;;5.70;99.90;;;;;;5091555;28;19954;-70
2021/05/02 00:30:56;;;;;;;;;;;5.70;99.90;;;;;;5090302;28;19908;-70
2021/05/02 00:33:22;;;;;;;;;;;5.80;99.90;;;;;;5091223;28;19912;-70
2021/05/02 00:35:48;;;;;;;;;;;5.80;99.90;;;;;;5090522;28;19908;-70
2021/05/02 00:38:14;;;;;;;;;;;5.70;99.90;;;;;;5091132;28;19920;-71
2021/05/02 00:40:41;;;;;;;;;;;5.70;99.90;;;;;;5091413;28;20085;-70
2021/05/02 00:43:11;;;;;;;;;;;5.70;99.90;;;;;;5091269;28;20006;-71
2021/05/02 00:46:09;;;;;;;;;;;5.70;99.90;;;;;;5089801;28;19973;-70
2021/05/02 00:48:53;;;;;;;;;;;5.70;99.90;;;;;;5067544;28;19908;-70
2021/05/02 00:51:20;;;;;;;;;;;5.70;99.90;;;;;;5091309;28;19954;-69
2021/05/02 00:53:58;;;;;;;;;;;5.70;99.90;;;;;;5090259;28;19908;-69
2021/05/02 00:56:29;;;;;;;;;;;5.60;99.90;;;;;;5088922;28;19995;-69
2021/05/02 00:58:54;;;;;;;;;;;5.70;99.90;;;;;;5091283;28;20454;-70
2021/05/02 01:01:21;;;;;;;;;;;5.60;99.90;;;;;;5091140;28;20186;-69
2021/05/02 01:03:47;;;;;;;;;;;5.70;99.90;;;;;;5091628;28;19912;-70
2021/05/02 01:06:14;;;;;;;;;;;5.60;99.90;;;;;;5088697;28;19934;-69
2021/05/02 01:08:40;;;;;;;;;;;5.60;99.90;;;;;;5091011;28;19908;-70
2021/05/02 01:11:10;;;;;;;;;;;5.70;99.90;;;;;;5091161;28;19909;-70
2021/05/02 01:13:36;;;;;;;;;;;5.60;99.90;;;;;;5091110;28;19909;-69
2021/05/02 01:16:03;;;;;;;;;;;5.70;99.90;;;;;;5088762;28;20400;-69
2021/05/02 01:18:28;;;;;;;;;;;5.60;99.90;;;;;;5084670;28;19912;-69
2021/05/02 01:20:56;;;;;;;;;;;5.60;99.90;;;;;;5090978;28;20272;-70
2021/05/02 01:23:25;;;;;;;;;;;5.60;99.90;;;;;;5088957;28;20289;-69
2021/05/02 01:25:52;;;;;;;;;;;5.60;99.90;;;;;;5089870;28;19920;-69
2021/05/02 01:28:18;;;;;;;;;;;5.60;99.90;;;;;;5089585;28;20003;-69
2021/05/02 01:30:43;;;;;;;;;;;5.50;99.90;;;;;;5090732;28;20406;-69
2021/05/02 01:33:09;;;;;;;;;;;5.50;99.90;;;;;;5089331;28;19914;-69
2021/05/02 01:35:34;;;;;;;;;;;5.50;99.90;;;;;;5090680;28;20006;-69
2021/05/02 01:38:00;;;;;;;;;;;5.50;99.90;;;;;;5090544;28;19922;-69
2021/05/02 01:40:25;;;;;;;;;;;5.50;99.90;;;;;;5091285;28;20258;-69
2021/05/02 01:42:51;;;;;;;;;;;5.50;99.90;;;;;;5091001;28;20086;-69
2021/05/02 01:45:16;;;;;;;;;;;5.50;99.90;;;;;;5090905;28;19912;-69
2021/05/02 01:47:43;;;;;;;;;;;5.50;99.90;;;;;;5089482;28;19940;-69
2021/05/02 01:50:09;;;;;;;;;;;5.40;99.90;;;;;;5091019;28;19908;-69
2021/05/02 01:52:36;;;;;;;;;;;5.40;99.90;;;;;;5089177;28;19923;-70
2021/05/02 01:55:02;;;;;;;;;;;5.40;99.90;;;;;;5090709;28;19912;-69
2021/05/02 01:57:29;;;;;;;;;;;5.40;99.90;;;;;;5091426;28;19923;-69
2021/05/02 01:59:57;;;;;;;;;;;5.40;99.90;;;;;;5094595;28;20310;-69
2021/05/02 02:02:23;;;;;;;;;;;5.30;99.90;;;;;;5094345;28;19912;-70
2021/05/02 02:04:49;;;;;;;;;;;5.30;99.90;;;;;;5094815;28;19908;-69
2021/05/02 02:07:17;;;;;;;;;;;5.30;99.90;;;;;;5093680;28;19919;-69
2021/05/02 02:09:43;;;;;;;;;;;5.30;99.90;;;;;;5094525;28;19987;-69
2021/05/02 02:12:09;;;;;;;;;;;5.30;99.90;;;;;;5094564;28;20016;-70
2021/05/02 02:14:35;;;;;;;;;;;5.30;99.90;;;;;;5094337;28;19922;-69
2021/05/02 02:17:02;;;;;;;;;;;5.30;99.90;;;;;;5091781;28;20003;-70
2021/05/02 02:19:27;;;;;;;;;;;5.30;99.90;;;;;;5094319;28;19969;-69
2021/05/02 02:21:53;;;;;;;;;;;5.30;99.90;;;;;;5094657;28;19912;-69
2021/05/02 02:24:32;;;;;;;;;;;5.20;99.90;;;;;;5090884;28;20002;-69
2021/05/02 02:27:00;;;;;;;;;;;5.20;99.90;;;;;;5092988;28;19916;-69
2021/05/02 02:29:25;;;;;;;;;;;5.30;99.90;;;;;;5094127;28;19912;-69
2021/05/02 02:31:52;;;;;;;;;;;5.30;99.90;;;;;;5093878;28;20274;-69
2021/05/02 02:34:18;;;;;;;;;;;5.30;99.90;;;;;;5094079;28;19934;-69
2021/05/02 02:36:44;;;;;;;;;;;5.30;99.90;;;;;;5093187;28;19912;-69
2021/05/02 02:39:10;;;;;;;;;;;5.30;99.90;;;;;;5093970;28;19947;-69
2021/05/02 02:41:38;;;;;;;;;;;5.30;99.90;;;;;;5092493;28;19916;-70
2021/05/02 02:44:06;;;;;;;;;;;5.30;99.90;;;;;;5092552;28;19908;-70
2021/05/02 02:46:31;;;;;;;;;;;5.30;99.90;;;;;;5092815;28;20356;-69
2021/05/02 02:48:58;;;;;;;;;;;5.40;99.90;;;;;;5093899;28;19947;-69
2021/05/02 02:51:28;;;;;;;;;;;5.30;99.90;;;;;;5093650;28;19915;-70
2021/05/02 02:53:56;;;;;;;;;;;5.30;99.90;;;;;;5090459;28;19912;-69
2021/05/02 02:56:22;;;;;;;;;;;5.30;99.90;;;;;;5110300;28;19915;-69
2021/05/02 02:58:47;;;;;;;;;;;5.30;99.90;;;;;;5113969;28;19918;-69
2021/05/02 03:01:13;;;;;;;;;;;5.30;99.90;;;;;;5113823;28;19911;-69
2021/05/02 03:03:42;;;;;;;;;;;5.30;99.90;;;;;;5113615;28;20022;-70
2021/05/02 03:06:08;;;;;;;;;;;5.40;99.90;;;;;;5112914;28;19912;-69
2021/05/02 03:08:36;;;;;;;;;;;5.40;99.90;;;;;;5112683;28;20036;-69
2021/05/02 03:11:02;;;;;;;;;;;5.40;99.90;;;;;;5113866;28;19908;-69
2021/05/02 03:13:27;;;;;;;;;;;5.40;99.90;;;;;;5113618;28;19912;-69
2021/05/02 03:15:53;;;;;;;;;;;5.40;99.90;;;;;;5111386;28;19912;-69
2021/05/02 03:18:26;;;;;;;;;;;5.40;99.90;;;;;;5113277;28;19908;-70
2021/05/02 03:21:03;;;;;;;;;;;5.40;99.90;;;;;;5113937;28;19908;-69
2021/05/02 03:23:30;;;;;;;;;;;5.30;99.90;;;;;;5099018;28;19930;-69
2021/05/02 03:25:59;;;;;;;;;;;5.30;99.90;;;;;;5091887;28;19912;-70
2021/05/02 03:28:29;;;;;;;;;;;5.30;99.90;;;;;;5092880;28;19912;-69
2021/05/02 03:30:55;;;;;;;;;;;5.30;99.90;;;;;;5093150;28;20003;-69
2021/05/02 03:33:22;;;;;;;;;;;5.30;99.90;;;;;;5091357;28;19999;-69
2021/05/02 03:35:48;;;;;;;;;;;5.30;99.90;;;;;;5090420;28;20292;-69
2021/05/02 03:38:14;;;;;;;;;;;5.30;99.90;;;;;;5092730;28;19969;-70
2021/05/02 03:40:39;;;;;;;;;;;5.30;99.90;;;;;;5091683;28;19908;-70
2021/05/02 03:43:05;;;;;;;;;;;5.20;99.90;;;;;;5093000;28;19923;-69
2021/05/02 03:45:31;;;;;;;;;;;5.20;99.90;;;;;;5092423;28;19913;-70
2021/05/02 03:47:56;;;;;;;;;;;5.20;99.90;;;;;;5090097;28;20320;-69
2021/05/02 03:50:22;;;;;;;;;;;5.20;99.90;;;;;;5092420;28;19911;-69
2021/05/02 03:52:47;;;;;;;;;;;5.10;99.90;;;;;;5090532;28;20367;-69
2021/05/02 03:55:13;;;;;;;;;;;5.20;99.90;;;;;;5092380;28;19999;-70
2021/05/02 03:57:38;;;;;;;;;;;5.20;99.90;;;;;;5091446;28;19915;-69
2021/05/02 04:00:04;;;;;;;;;;;5.20;99.90;;;;;;5092354;28;19909;-69
2021/05/02 04:02:30;;;;;;;;;;;5.30;99.90;;;;;;5092007;28;19923;-70
2021/05/02 04:04:55;;;;;;;;;;;5.30;99.90;;;;;;5092282;28;19951;-70
2021/05/02 04:07:20;;;;;;;;;;;5.40;99.90;;;;;;5091355;28;20289;-70
2021/05/02 04:09:46;;;;;;;;;;;5.40;99.90;;;;;;5092197;28;20032;-70
2021/05/02 04:12:12;;;;;;;;;;;5.40;99.90;;;;;;5090771;28;20357;-69
2021/05/02 04:14:38;;;;;;;;;;;5.40;99.90;;;;;;5092220;28;19908;-69
2021/05/02 04:17:05;;;;;;;;;;;5.40;99.90;;;;;;5090893;28;19915;-70
2021/05/02 04:19:31;;;;;;;;;;;5.50;99.90;;;;;;5091682;28;19908;-70
2021/05/02 04:21:57;;;;;;;;;;;5.50;99.90;;;;;;5090590;28;19998;-69
2021/05/02 04:24:23;;;;;;;;;;;5.60;99.90;;;;;;5088506;28;19947;-70
2021/05/02 04:26:49;;;;;;;;;;;5.60;99.90;;;;;;5091089;28;20369;-69
2021/05/02 04:29:15;;;;;;;;;;;5.60;99.90;;;;;;5090744;28;19952;-69
2021/05/02 04:31:40;;;;;;;;;;;5.50;99.90;;;;;;5091886;28;19912;-69
2021/05/02 04:34:06;;;;;;;;;;;5.50;99.90;;;;;;5091194;28;19985;-69
2021/05/02 04:36:32;;;;;;;;;;;5.50;99.90;;;;;;5090719;28;19908;-70
2021/05/02 04:38:58;;;;;;;;;;;5.50;99.90;;;;;;5091725;28;20399;-69
2021/05/02 04:41:24;;;;;;;;;;;5.50;99.90;;;;;;5091694;28;19909;-69
2021/05/02 04:43:49;;;;;;;;;;;5.50;99.90;;;;;;5091677;28;19908;-69
2021/05/02 04:46:15;;;;;;;;;;;5.50;99.90;;;;;;5090466;28;19912;-71
2021/05/02 04:48:41;;;;;;;;;;;5.50;99.90;;;;;;5089270;28;19944;-69
2021/05/02 04:51:06;;;;;;;;;;;5.50;99.90;;;;;;5091555;28;20365;-69
2021/05/02 04:53:32;;;;;;;;;;;5.50;99.90;;;;;;5089427;28;19995;-69
2021/05/02 04:55:58;;;;;;;;;;;5.50;99.90;;;;;;5090466;28;19919;-69
2021/05/02 04:58:23;;;;;;;;;;;5.60;99.90;;;;;;5091188;28;19912;-70
2021/05/02 05:00:49;;;;;;;;;;;5.60;99.90;;;;;;5091508;28;19914;-69
2021/05/02 05:03:15;;;;;;;;;;;5.60;99.90;;;;;;5091002;28;19908;-69
2021/05/02 05:05:41;;;;;;;;;;;5.70;99.90;;;;;;5090314;28;20018;-69
2021/05/02 05:08:07;;;;;;;;;;;5.70;99.90;;;;;;5091306;28;20003;-69
2021/05/02 05:10:32;;;;;;;;;;;5.70;99.90;;;;;;5091168;28;19938;-69
2021/05/02 05:12:58;;;;;;;;;;;5.60;99.90;;;;;;5091219;28;19908;-68
2021/05/02 05:15:23;;;;;;;;;;;5.60;99.90;;;;;;5091213;28;19951;-69
2021/05/02 05:17:49;;;;;;;;;;;5.60;99.90;;;;;;5089735;28;20284;-69
2021/05/02 05:20:14;;;;;;;;;;;5.70;99.90;;;;;;5091218;28;19908;-70
2021/05/02 05:22:40;;;;;;;;;;;5.70;99.90;;;;;;5089198;28;20361;-69
2021/05/02 05:25:06;;;;;;;;;;;5.70;99.90;;;;;;5090998;28;19908;-69
2021/05/02 05:27:31;;;;;;;;;;;5.70;99.90;;;;;;5090024;28;19912;-69
2021/05/02 05:29:57;;;;;;;;;;;5.70;99.90;;;;;;5091153;28;19912;-69
2021/05/02 05:32:23;;;;;;;;;;;5.70;99.90;;;;;;5092270;28;20030;-69
2021/05/02 05:34:48;;;;;;;;;;;5.80;99.90;;;;;;5095114;28;20388;-69
2021/05/02 05:37:14;;;;;;;;;;;5.80;99.90;;;;;;5094189;28;19912;-69
2021/05/02 05:39:40;;;;;;;;;;;5.80;99.90;;;;;;5094972;28;20041;-69
2021/05/02 05:42:05;;;;;;;;;;;5.90;99.90;;;;;;5095014;28;19934;-69
2021/05/02 05:44:31;;;;;;;;;;;5.90;99.90;;;;;;5095341;28;19954;-69
2021/05/02 05:46:56;;;;;;;;;;;5.90;99.90;;;;;;5093876;28;20278;-69
2021/05/02 05:49:22;;;;;;;;;;;6.00;99.90;;;;;;5094914;28;19908;-69
2021/05/02 05:51:51;;;;;;;;;;;6.10;99.90;;;;;;5095103;28;19951;-69
2021/05/02 05:54:16;;;;;;;;;;;6.20;99.90;;;;;;5102566;28;19915;-69
2021/05/02 05:56:42;;;;;;;;;;;6.30;99.90;;;;;;5114897;28;20284;-69
2021/05/02 05:59:07;;;;;;;;;;;6.40;99.90;;;;;;5114221;28;19911;-69
2021/05/02 06:01:33;;;;;;;;;;;6.50;99.90;;;;;;5115423;28;19908;-69
2021/05/02 06:03:59;;;;;;;;;;;6.60;99.90;;;;;;5114655;28;19919;-69
2021/05/02 06:06:25;;;;;;;;;;;6.70;99.90;;;;;;5114260;28;19912;-69
2021/05/02 06:08:50;;;;;;;;;;;6.70;99.90;;;;;;5114824;28;20372;-69
2021/05/02 06:11:16;;;;;;;;;;;6.80;99.90;;;;;;5114776;28;19908;-69
2021/05/02 06:13:41;;;;;;;;;;;6.80;99.90;;;;;;5114788;28;19915;-70
2021/05/02 06:16:08;;;;;;;;;;;6.90;99.90;;;;;;5113746;28;20389;-69
2021/05/02 06:18:33;;;;;;;;;;;6.80;99.90;;;;;;5114461;28;20007;-69
2021/05/02 06:20:59;;;;;;;;;;;6.90;99.90;;;;;;5115025;28;19962;-69
2021/05/02 06:23:24;;;;;;;;;;;7.00;99.90;;;;;;5099733;28;19920;-69
2021/05/02 06:25:50;;;;;;;;;;;7.10;99.90;;;;;;5091667;28;19923;-69
2021/05/02 06:28:15;;;;;;;;;;;7.10;99.90;;;;;;5093570;28;19912;-70
2021/05/02 06:30:41;;;;;;;;;;;7.20;99.90;;;;;;5094318;28;19916;-69
2021/05/02 06:33:07;;;;;;;;;;;7.20;99.90;;;;;;5092752;28;20040;-69
2021/05/02 06:35:32;;;;;;;;;;;7.10;99.90;;;;;;5093321;28;19909;-69
2021/05/02 06:37:58;;;;;;;;;;;7.10;99.90;;;;;;5093240;28;19961;-69
2021/05/02 06:40:23;;;;;;;;;;;7.10;99.90;;;;;;5093907;28;19908;-69
2021/05/02 06:42:49;;;;;;;;;;;7.10;99.90;;;;;;5093773;28;20262;-69
2021/05/02 06:45:16;;;;;;;;;;;7.20;99.90;;;;;;5092545;28;19986;-69
2021/05/02 06:47:41;;;;;;;;;;;7.30;99.90;;;;;;5092458;28;19912;-69
2021/05/02 06:50:07;;;;;;;;;;;7.50;99.90;;;;;;5092513;28;19919;-69
2021/05/02 06:52:33;;;;;;;;;;;7.70;99.90;;;;;;5091532;28;19908;-69
2021/05/02 06:54:58;;;;;;;;;;;7.80;99.90;;;;;;5093580;28;19908;-69
2021/05/02 06:57:24;;;;;;;;;;;8.00;99.90;;;;;;5092561;28;19908;-69
2021/05/02 06:59:49;;;;;;;;;;;8.10;99.90;;;;;;5093419;28;20315;-70
2021/05/02 07:02:15;;;;;;;;;;;8.20;99.90;;;;;;5093429;28;20079;-69
2021/05/02 07:04:40;;;;;;;;;;;8.30;99.90;;;;;;5093222;28;20105;-70
2021/05/02 07:07:06;;;;;;;;;;;8.30;99.90;;;;;;5092313;28;20373;-69
2021/05/02 07:09:31;;;;;;;;;;;8.40;99.90;;;;;;5093182;28;20002;-69
2021/05/02 07:11:57;;;;;;;;;;;8.40;99.90;;;;;;5093356;28;20311;-69
2021/05/02 07:14:23;;;;;;;;;;;8.50;99.90;;;;;;5093087;28;19908;-69
2021/05/02 07:16:48;;;;;;;;;;;8.70;99.90;;;;;;5092105;28;19912;-69
2021/05/02 07:19:14;;;;;;;;;;;8.90;99.90;;;;;;5092954;28;19919;-69
2021/05/02 07:21:40;;;;;;;;;;;9.20;99.90;;;;;;5093024;28;19908;-69
2021/05/02 07:24:06;;;;;;;;;;;9.50;99.90;;;;;;5091000;28;19947;-69
2021/05/02 07:26:31;;;;;;;;;;;9.80;99.90;;;;;;5090188;28;20409;-69
2021/05/02 07:28:57;;;;;;;;;;;10.30;99.90;;;;;;5092915;28;20142;-69
2021/05/02 07:31:22;;;;;;;;;;;10.80;99.90;;;;;;5092823;28;20289;-70
2021/05/02 07:33:48;;;;;;;;;;;11.60;99.90;;;;;;5092293;28;20242;-69
2021/05/02 07:36:14;;;;;;;;;;;12.10;99.90;;;;;;5091937;28;19908;-70
2021/05/02 07:38:40;;;;;;;;;;;12.40;99.90;;;;;;5092679;28;19916;-69
2021/05/02 07:41:06;;;;;;;;;;;12.50;99.90;;;;;;5092798;28;20412;-70
2021/05/02 07:43:33;;;;;;;;;;;12.60;99.90;;;;;;5092499;28;19915;-70
2021/05/02 07:45:58;;;;;;;;;;;12.60;99.90;;;;;;5091375;28;19916;-70
2021/05/02 07:48:24;;;;;;;;;;;12.70;99.90;;;;;;5092479;28;19908;-70
2021/05/02 07:50:49;;;;;;;;;;;12.50;99.90;;;;;;5092786;28;20423;-70
2021/05/02 07:53:18;;;;;;;;;;;12.60;99.90;;;;;;5090551;28;19995;-70
2021/05/02 07:55:43;;;;;;;;;;;12.90;99.90;;;;;;5103441;28;19908;-70
2021/05/02 07:58:09;;;;;;;;;;;13.00;99.90;;;;;;5112850;28;19999;-70
2021/05/02 08:00:35;;;;;;;;;;;12.70;99.90;;;;;;5112916;28;20340;-70
2021/05/02 08:03:00;;;;;;;;;;;12.40;99.90;;;;;;5111523;28;19908;-69
2021/05/02 08:05:26;;;;;;;;;;;12.10;99.90;;;;;;5098646;28;19912;-70
2021/05/02 08:07:51;;;;;;;;;;;11.90;99.90;;;;;;5074878;28;19908;-70
2021/05/02 08:10:18;;;;;;;;;;;12.00;99.90;;;;;;5072106;28;19913;-70
2021/05/02 08:12:43;;;;;;;;;;;12.20;99.90;;;;;;5071922;28;19913;-70
2021/05/02 08:15:09;;;;;;;;;;;11.90;99.90;;;;;;5076605;28;20011;-70
2021/05/02 08:17:35;;;;;;;;;;;11.60;99.90;;;;;;5090688;28;19961;-70
2021/05/02 08:20:02;;;;;;;;;;;11.50;99.90;;;;;;5092035;28;19924;-70
2021/05/02 08:22:27;;;;;;;;;;;11.30;99.90;;;;;;5090180;28;20499;-70
2021/05/02 08:24:53;;;;;;;;;;;11.10;99.90;;;;;;5090498;28;19962;-70
2021/05/02 08:27:18;;;;;;;;;;;11.20;99.90;;;;;;5090420;28;20368;-70
2021/05/02 08:29:44;;;;;;;;;;;11.10;99.90;;;;;;5091887;28;19912;-70
2021/05/02 08:32:09;;;;;;;;;;;10.80;99.90;;;;;;5091845;28;19916;-70
2021/05/02 08:34:35;;;;;;;;;;;10.60;99.90;;;;;;5091449;28;20392;-70
2021/05/02 08:37:00;;;;;;;;;;;10.40;99.90;;;;;;5090379;28;19920;-70
2021/05/02 08:39:27;;;;;;;;;;;10.20;99.90;;;;;;5091845;28;20289;-70
2021/05/02 08:41:52;;;;;;;;;;;10.10;99.90;;;;;;5091325;28;20010;-70
2021/05/02 08:44:23;;;;;;;;;;;9.90;99.90;;;;;;5090624;28;19951;-70
2021/05/02 08:46:49;;;;;;;;;;;9.90;99.90;;;;;;5089801;28;19916;-70
2021/05/02 08:49:14;;;;;;;;;;;9.90;99.90;;;;;;5090629;28;20265;-70
2021/05/02 08:51:40;;;;;;;;;;;10.10;99.90;;;;;;5089489;28;19908;-70
2021/05/02 08:54:05;;;;;;;;;;;10.10;99.90;;;;;;5087452;28;19938;-70
2021/05/02 08:56:31;;;;;;;;;;;10.20;99.90;;;;;;5089578;28;19908;-70
2021/05/02 08:58:56;;;;;;;;;;;10.20;99.90;;;;;;5090945;28;19912;-70
2021/05/02 09:01:28;;;;;;;;;;;10.20;99.90;;;;;;5091564;28;19912;-70
2021/05/02 09:03:54;;;;;;;;;;;10.50;99.90;;;;;;5091099;28;19908;-70
2021/05/02 09:06:23;;;;;;;;;;;10.80;99.90;;;;;;5089346;28;19912;-70
2021/05/02 09:08:53;;;;;;;;;;;11.10;99.90;;;;;;5091167;28;19908;-70
2021/05/02 09:11:35;;;;;;;;;;;11.50;99.90;;;;;;5091275;28;19908;-71
2021/05/02 09:14:02;;;;;;;;;;;12.10;99.90;;;;;;5091212;28;19909;-71
2021/05/02 09:16:28;;;;;;;;;;;12.60;99.90;;;;;;5088645;28;19908;-70
2021/05/02 09:18:59;;;;;;;;;;;13.40;99.90;;;;;;5090965;28;20610;-71
2021/05/02 09:21:29;;;;;;;;;;;13.90;98.30;;;;;;5091176;28;19908;-70
2021/05/02 09:23:55;;;;;;;;;;;13.70;97.90;;;;;;5089243;28;20000;-71
2021/05/02 09:26:21;;;;;;;;;;;13.40;96.60;;;;;;5089692;28;20000;-71
2021/05/02 09:28:49;;;;;;;;;;;13.20;98.60;;;;;;5091143;28;19912;-70
2021/05/02 09:31:19;;;;;;;;;;;12.70;97.80;;;;;;5091265;28;19908;-70
2021/05/02 09:33:45;;;;;;;;;;;12.70;96.40;;;;;;5090857;28;19919;-70
2021/05/02 09:36:12;;;;;;;;;;;12.90;97.40;;;;;;5089610;28;19963;-72
2021/05/02 09:38:38;;;;;;;;;;;12.90;95.70;;;;;;5090815;28;19920;-70
2021/05/02 09:41:05;;;;;;;;;;;12.80;96.60;;;;;;5091056;28;19923;-70
2021/05/02 09:43:49;;;;;;;;;;;12.50;96.80;;;;;;5091081;28;19908;-71
2021/05/02 09:46:25;;;;;;;;;;;12.40;97.00;;;;;;5089452;28;19938;-70
2021/05/02 09:48:51;;;;;;;;;;;11.90;96.40;;;;;;5090097;28;19914;-70
2021/05/02 09:51:16;;;;;;;;;;;11.60;97.70;;;;;;5090728;28;19982;-70
2021/05/02 09:53:57;;;;;;;;;;;11.40;97.90;;;;;;5088890;28;19912;-70
2021/05/02 09:56:29;;;;;;;;;;;11.30;98.30;;;;;;5089881;28;19927;-70
2021/05/02 09:58:55;;;;;;;;;;;11.10;98.50;;;;;;5090515;28;20017;-71
2021/05/02 10:01:21;;;;;;;;;;;11.10;99.30;;;;;;5089311;28;20386;-72
2021/05/02 10:03:50;;;;;;;;;;;11.30;99.90;;;;;;5090478;28;20353;-71
2021/05/02 10:06:27;;;;;;;;;;;11.80;99.40;;;;;;5089549;28;20021;-70
2021/05/02 10:08:53;;;;;;;;;;;12.50;97.50;;;;;;5086793;28;19931;-70
2021/05/02 10:11:19;;;;;;;;;;;13.00;96.00;;;;;;5073595;28;20464;-70
2021/05/02 10:13:45;;;;;;;;;;;13.80;95.90;;;;;;5070153;28;19999;-70
2021/05/02 10:16:12;;;;;;;;;;;14.40;94.20;;;;;;5069131;28;19908;-70
2021/05/02 10:18:38;;;;;;;;;;;14.30;93.10;;;;;;5088773;28;19919;-70
2021/05/02 10:21:05;;;;;;;;;;;14.00;93.60;;;;;;5111898;28;19935;-70
2021/05/02 10:23:31;;;;;;;;;;;13.60;94.50;;;;;;5104561;28;19908;-71
2021/05/02 10:25:57;;;;;;;;;;;13.40;95.90;;;;;;5091502;28;20369;-71
2021/05/02 10:28:26;;;;;;;;;;;13.20;96.60;;;;;;5092893;28;20017;-71
2021/05/02 10:30:53;;;;;;;;;;;13.00;97.30;;;;;;5094129;28;19995;-71
2021/05/02 10:33:38;;;;;;;;;;;13.00;99.90;;;;;;5093719;28;19916;-71
2021/05/02 10:36:06;;;;;;;;;;;13.30;98.10;;;;;;5092854;28;19908;-71
2021/05/02 10:38:47;;;;;;;;;;;13.40;95.40;;;;;;5093766;28;20425;-71
2021/05/02 10:41:19;;;;;;;;;;;13.30;97.10;;;;;;5093739;28;20323;-70
2021/05/02 10:43:45;;;;;;;;;;;13.20;97.00;;;;;;5092679;28;20277;-70
2021/05/02 10:46:30;;;;;;;;;;;13.20;96.90;;;;;;5092654;28;19912;-70
2021/05/02 10:48:56;;;;;;;;;;;13.10;97.10;;;;;;5093143;28;19963;-70
2021/05/02 10:51:25;;;;;;;;;;;13.10;95.20;;;;;;5093431;28;19912;-70
2021/05/02 10:54:00;;;;;;;;;;;13.00;96.30;;;;;;5090334;28;19954;-70
2021/05/02 10:56:40;;;;;;;;;;;13.00;96.70;;;;;;5092395;28;19951;-70
2021/05/02 10:59:05;;;;;;;;;;;13.00;95.00;;;;;;5091969;28;20002;-70
2021/05/02 11:01:30;;;;;;;;;;;13.10;96.00;;;;;;5093710;28;20007;-70
2021/05/02 11:03:56;;;;;;;;;;;13.20;94.80;;;;;;5092919;28;19912;-70
2021/05/02 11:06:40;;;;;;;;;;;13.50;95.30;;;;;;5092481;28;19920;-70
2021/05/02 11:09:05;;;;;;;;;;;13.80;96.40;;;;;;5093199;28;19908;-70
2021/05/02 11:14:08;;;;;;;;;;;14.90;95.30;;;;;;5093279;28;20169;-70
2021/05/02 11:16:37;;;;;;;;;;;15.50;94.60;;;;;;5092255;28;19908;-70
2021/05/02 11:19:03;;;;;;;;;;;15.80;92.40;;;;;;5092746;28;19912;-71
2021/05/02 11:21:52;;;;;;;;;;;15.80;91.20;;;;;;5092866;28;20360;-70
2021/05/02 11:24:19;;;;;;;;;;;16.00;92.30;;;;;;5102886;28;19918;-70
2021/05/02 11:26:47;;;;;;;;;;;15.90;89.60;;;;;;5112087;28;19911;-69
2021/05/02 11:29:16;;;;;;;;;;;16.20;92.70;;;;;;5112652;28;19908;-70
2021/05/02 11:31:42;;;;;;;;;;;16.60;91.10;;;;;;5111487;28;19908;-70
2021/05/02 11:34:08;;;;;;;;;;;16.90;91.00;;;;;;5112715;28;20304;-70
2021/05/02 11:36:37;;;;;;;;;;;17.30;90.00;;;;;;5112266;28;20364;-70
2021/05/02 11:39:03;;;;;;;;;;;17.40;86.30;;;;;;5112793;28;20403;-70
2021/05/02 11:41:28;;;;;;;;;;;17.10;86.90;;;;;;5112971;28;19908;-70
2021/05/02 11:43:54;;;;;;;;;;;16.00;86.50;;;;;;5113067;28;19912;-71
2021/05/02 11:46:23;;;;;;;;;;;15.10;89.50;;;;;;5111789;28;20014;-70
2021/05/02 11:48:50;;;;;;;;;;;14.20;89.90;;;;;;5112850;28;19908;-70
2021/05/02 11:51:18;;;;;;;;;;;13.30;91.50;;;;;;5112745;28;19916;-70
2021/05/02 11:53:53;;;;;;;;;;;12.20;92.30;;;;;;5096253;28;19912;-70
2021/05/02 11:56:23;;;;;;;;;;;11.10;94.50;;;;;;5090972;28;19910;-70
2021/05/02 11:58:49;;;;;;;;;;;10.60;96.70;;;;;;5092203;28;19961;-70
2021/05/02 12:01:19;;;;;;;;;;;10.20;97.90;;;;;;5092342;28;20357;-70
2021/05/02 12:03:45;;;;;;;;;;;10.00;99.20;;;;;;5090434;28;19915;-70
2021/05/02 12:06:19;;;;;;;;;;;10.00;99.90;;;;;;5091254;28;19912;-70
2021/05/02 12:08:46;;;;;;;;;;;10.10;99.90;;;;;;5092047;28;19912;-70
2021/05/02 12:11:12;;;;;;;;;;;10.20;99.90;;;;;;5092011;28;20392;-70
2021/05/02 12:13:39;;;;;;;;;;;10.30;99.90;;;;;;5091937;28;20118;-70
2021/05/02 12:16:09;;;;;;;;;;;10.50;99.90;;;;;;5090848;28;19912;-70
2021/05/02 12:18:44;;;;;;;;;;;10.40;99.70;;;;;;5091518;28;19915;-71
2021/05/02 12:21:10;;;;;;;;;;;10.00;98.10;;;;;;5090655;28;19909;-70
2021/05/02 12:23:35;;;;;;;;;;;9.70;99.70;;;;;;5090131;28;19948;-70
2021/05/02 12:26:10;;;;;;;;;;;9.60;99.90;;;;;;5090471;28;20368;-70
2021/05/02 12:28:37;;;;;;;;;;;9.60;99.90;;;;;;5091773;28;19908;-70
2021/05/02 12:31:04;;;;;;;;;;;9.60;99.90;;;;;;5091640;28;19908;-70
2021/05/02 12:33:30;;;;;;;;;;;9.70;99.90;;;;;;5091327;28;19955;-70
2021/05/02 12:35:56;;;;;;;;;;;9.70;99.90;;;;;;5090712;28;20373;-70
2021/05/02 12:38:25;;;;;;;;;;;9.80;99.90;;;;;;5091275;28;19923;-70
2021/05/02 12:40:50;;;;;;;;;;;9.90;99.90;;;;;;5091451;28;19908;-70
2021/05/02 12:43:26;;;;;;;;;;;10.10;99.90;;;;;;5091583;28;19916;-71
2021/05/02 12:45:52;;;;;;;;;;;10.20;99.90;;;;;;5090216;28;19962;-71
2021/05/02 12:48:27;;;;;;;;;;;10.10;99.90;;;;;;5089876;28;19916;-71
2021/05/02 12:50:53;;;;;;;;;;;10.20;99.90;;;;;;5091402;28;20341;-72
2021/05/02 12:53:19;;;;;;;;;;;10.40;99.90;;;;;;5089281;28;19967;-72
2021/05/02 12:55:51;;;;;;;;;;;10.60;99.90;;;;;;5090287;28;20054;-71
2021/05/02 12:58:32;;;;;;;;;;;11.00;99.90;;;;;;5091100;28;20399;-71
2021/05/02 13:00:58;;;;;;;;;;;11.40;99.90;;;;;;5089899;28;19919;-70
2021/05/02 13:03:42;;;;;;;;;;;12.10;99.90;;;;;;5091147;28;20094;-69
2021/05/02 13:06:14;;;;;;;;;;;12.70;99.90;;;;;;5090040;28;19934;-71
2021/05/02 13:08:52;;;;;;;;;;;13.10;97.80;;;;;;5090944;28;19908;-70
2021/05/02 13:11:40;;;;;;;;;;;13.20;95.90;;;;;;5091285;28;19912;-70
2021/05/02 13:14:20;;;;;;;;;;;13.30;96.00;;;;;;5091097;28;19961;-71
2021/05/02 13:16:50;;;;;;;;;;;13.60;95.80;;;;;;5088745;28;20428;-69
2021/05/02 13:19:23;;;;;;;;;;;14.20;96.20;;;;;;5090535;28;20322;-70
2021/05/02 13:21:49;;;;;;;;;;;14.50;94.00;;;;;;5091108;28;19916;-70
2021/05/02 13:24:14;;;;;;;;;;;14.50;94.80;;;;;;5088933;28;19908;-70
2021/05/02 13:26:40;;;;;;;;;;;14.70;94.00;;;;;;5089715;28;19964;-71
2021/05/02 13:29:06;;;;;;;;;;;14.30;92.90;;;;;;5090910;28;20050;-71
2021/05/02 13:31:42;;;;;;;;;;;14.00;93.70;;;;;;5090676;28;20437;-71
2021/05/02 13:34:08;;;;;;;;;;;13.50;94.20;;;;;;5090687;28;20364;-71
2021/05/02 13:36:34;;;;;;;;;;;13.00;95.30;;;;;;5089835;28;19916;-71
2021/05/02 13:39:00;;;;;;;;;;;12.50;96.10;;;;;;5090799;28;19916;-71
2021/05/02 13:41:26;;;;;;;;;;;12.10;96.30;;;;;;5090883;28;19908;-71
2021/05/02 13:44:01;;;;;;;;;;;12.00;97.40;;;;;;5090841;28;19915;-71
2021/05/02 13:46:26;;;;;;;;;;;11.80;97.80;;;;;;5089501;28;19980;-71
2021/05/02 13:48:52;;;;;;;;;;;11.50;97.80;;;;;;5090540;28;20421;-71
2021/05/02 13:51:17;;;;;;;;;;;11.20;97.90;;;;;;5090756;28;19912;-71
2021/05/02 13:53:43;;;;;;;;;;;10.90;99.40;;;;;;5089313;28;19908;-71
2021/05/02 13:56:08;;;;;;;;;;;10.50;99.90;;;;;;5093686;28;19912;-71
2021/05/02 13:58:34;;;;;;;;;;;10.10;99.90;;;;;;5094405;28;19922;-71
2021/05/02 14:00:59;;;;;;;;;;;9.80;99.90;;;;;;5094380;28;20026;-71
2021/05/02 14:03:27;;;;;;;;;;;9.50;99.90;;;;;;5094430;28;20351;-71
2021/05/02 14:05:55;;;;;;;;;;;9.30;99.90;;;;;;5093252;28;19919;-71
2021/05/02 14:08:20;;;;;;;;;;;9.20;99.90;;;;;;5094514;28;20007;-71
2021/05/02 14:10:46;;;;;;;;;;;9.00;99.90;;;;;;5094419;28;19943;-71
2021/05/02 14:13:11;;;;;;;;;;;8.90;99.90;;;;;;5094127;28;20442;-71
2021/05/02 14:15:37;;;;;;;;;;;8.90;99.90;;;;;;5093656;28;19908;-70
2021/05/02 14:18:02;;;;;;;;;;;8.80;99.90;;;;;;5092564;28;20422;-71
2021/05/02 14:20:28;;;;;;;;;;;8.80;99.90;;;;;;5103173;28;19908;-71
2021/05/02 14:22:53;;;;;;;;;;;8.90;99.90;;;;;;5102148;28;20415;-70
2021/05/02 14:25:19;;;;;;;;;;;9.10;99.90;;;;;;5093832;28;19908;-70
2021/05/02 14:27:44;;;;;;;;;;;9.10;99.90;;;;;;5092261;28;19912;-70